Time;durP1;ratioP1;P1;durP2;ratioP2;P2;SDS_P1;SDS_P2;PMS_P1;PMS_P2;Temp;Humidity;BMP_temperature;BMP_pressure;BME280_temperature;BME280_humidity;BME280_pressure;Samples;Min_cycle;Max_cycle;Signal;HPM_P1;HPM_P2
2021/12/24 00:01:11;;;;;;;29.20;23.88;;;;;;;;;;5070914;28;20388;-63
2021/12/24 00:03:37;;;;;;;26.77;23.90;;;;;;;;;;5055754;28;20037;-62
2021/12/24 00:06:03;;;;;;;27.58;22.65;;;;;;;;;;5073815;28;20101;-63
2021/12/24 00:08:28;;;;;;;26.33;23.55;;;;;;;;;;5073863;28;20379;-63
2021/12/24 00:10:59;;;;;;;27.98;23.92;;;;;;;;;;5073713;28;20029;-61
2021/12/24 00:13:26;;;;;;;27.27;23.60;;;;;;;;;;5039042;28;20048;-64
2021/12/24 00:37:16;;;;;;;24.52;20.92;;;;;;;;;;5073474;28;20048;-62
2021/12/24 00:42:29;;;;;;;27.27;21.42;;;;;;;;;;5043031;28;20124;-62
2021/12/24 00:44:55;;;;;;;24.88;20.92;;;;;;;;;;5054813;28;20437;-62
2021/12/24 00:47:20;;;;;;;30.00;19.40;;;;;;;;;;5073024;28;20492;-63
2021/12/24 00:49:46;;;;;;;22.10;18.27;;;;;;;;;;5073162;28;20487;-62
2021/12/24 00:55:24;;;;;;;22.48;18.65;;;;;;;;;;4991931;28;20120;-61
2021/12/24 00:57:52;;;;;;;23.83;18.02;;;;;;;;;;4991541;28;20053;-64
2021/12/24 01:00:23;;;;;;;23.05;18.20;;;;;;;;;;5018615;28;20131;-63
2021/12/24 01:02:49;;;;;;;22.67;18.42;;;;;;;;;;5071744;28;20129;-62
2021/12/24 01:05:15;;;;;;;23.45;18.00;;;;;;;;;;5053758;28;20082;-62
2021/12/24 01:07:41;;;;;;;22.83;18.13;;;;;;;;;;5053827;28;20045;-61
2021/12/24 01:10:07;;;;;;;23.52;18.75;;;;;;;;;;5072504;28;20407;-61
2021/12/24 01:12:33;;;;;;;23.70;18.63;;;;;;;;;;5072630;28;20089;-63
2021/12/24 01:14:59;;;;;;;25.20;19.70;;;;;;;;;;5054297;28;20036;-63
2021/12/24 01:17:35;;;;;;;26.15;19.13;;;;;;;;;;5054602;28;20101;-62
2021/12/24 01:20:12;;;;;;;23.08;18.55;;;;;;;;;;5052289;28;20025;-63
2021/12/24 01:25:15;;;;;;;23.20;18.35;;;;;;;;;;5060104;28;20027;-62
2021/12/24 01:38:31;;;;;;;22.88;18.63;;;;;;;;;;5071263;28;20128;-61
2021/12/24 01:43:26;;;;;;;20.15;18.00;;;;;;;;;;5070830;28;20060;-61
2021/12/24 01:45:53;;;;;;;24.42;18.95;;;;;;;;;;5070922;28;20062;-62
2021/12/24 01:48:25;;;;;;;23.55;18.17;;;;;;;;;;5087980;28;20044;-62
2021/12/24 01:50:54;;;;;;;24.05;17.83;;;;;;;;;;5037696;28;20115;-62
2021/12/24 01:53:24;;;;;;;23.38;19.13;;;;;;;;;;5087714;28;20472;-62
2021/12/24 01:55:51;;;;;;;22.13;17.48;;;;;;;;;;5070545;28;20037;-63
2021/12/24 01:58:41;;;;;;;21.38;17.73;;;;;;;;;;5087442;28;20048;-62
2021/12/24 02:01:07;;;;;;;21.75;16.83;;;;;;;;;;5054218;28;20043;-63
2021/12/24 02:03:35;;;;;;;21.85;17.95;;;;;;;;;;5071860;28;20044;-63
2021/12/24 02:06:01;;;;;;;25.33;17.63;;;;;;;;;;5054169;28;20353;-63
2021/12/24 02:08:26;;;;;;;24.75;18.80;;;;;;;;;;5052174;28;20488;-62
2021/12/24 02:10:59;;;;;;;24.23;19.35;;;;;;;;;;5075306;28;20111;-63
2021/12/24 02:13:29;;;;;;;23.40;18.63;;;;;;;;;;5073996;28;20165;-62
2021/12/24 02:16:23;;;;;;;24.13;18.35;;;;;;;;;;5057545;28;20115;-62
2021/12/24 02:30:04;;;;;;;36.55;22.95;;;;;;;;;;5074222;28;20040;-62
2021/12/24 02:32:31;;;;;;;36.92;24.52;;;;;;;;;;5090861;28;20037;-62
2021/12/24 02:34:57;;;;;;;41.53;25.13;;;;;;;;;;5057376;28;20036;-62
2021/12/24 02:37:22;;;;;;;37.35;26.13;;;;;;;;;;5057229;28;20036;-62
2021/12/24 02:39:48;;;;;;;35.15;23.88;;;;;;;;;;5075282;28;20024;-62
2021/12/24 02:42:15;;;;;;;37.25;24.55;;;;;;;;;;5074800;28;20051;-61
2021/12/24 02:44:41;;;;;;;34.03;23.17;;;;;;;;;;5056947;28;20040;-61
2021/12/24 02:47:34;;;;;;;36.53;25.00;;;;;;;;;;5090681;28;20032;-61
2021/12/24 02:55:05;;;;;;;32.85;22.88;;;;;;;;;;5075003;28;20106;-63
2021/12/24 02:57:32;;;;;;;34.80;24.15;;;;;;;;;;5090415;28;20094;-63
2021/12/24 03:00:19;;;;;;;33.33;25.77;;;;;;;;;;5056965;28;20078;-62
2021/12/24 03:02:44;;;;;;;32.85;23.80;;;;;;;;;;5073508;28;20032;-62
2021/12/24 03:05:12;;;;;;;36.03;25.25;;;;;;;;;;5090083;28;20089;-62
2021/12/24 03:07:38;;;;;;;30.70;23.58;;;;;;;;;;5073674;28;20483;-63
2021/12/24 03:10:05;;;;;;;31.77;22.85;;;;;;;;;;5056868;28;20068;-62
2021/12/24 03:12:31;;;;;;;31.92;23.70;;;;;;;;;;5056517;28;20484;-62
2021/12/24 03:14:56;;;;;;;29.90;22.90;;;;;;;;;;5056270;28;20033;-61
2021/12/24 03:17:24;;;;;;;32.65;23.50;;;;;;;;;;5056538;28;20085;-62
2021/12/24 03:19:52;;;;;;;30.35;23.40;;;;;;;;;;5055744;28;20510;-63
2021/12/24 03:24:52;;;;;;;32.75;23.85;;;;;;;;;;5073301;28;20064;-63
2021/12/24 03:27:17;;;;;;;28.15;23.10;;;;;;;;;;5074447;28;20129;-63
2021/12/24 03:29:42;;;;;;;29.85;23.25;;;;;;;;;;5074463;28;20033;-62
2021/12/24 03:32:09;;;;;;;30.33;23.80;;;;;;;;;;5056090;28;20032;-63
2021/12/24 03:34:35;;;;;;;31.83;23.80;;;;;;;;;;5039511;28;20476;-61
2021/12/24 03:37:03;;;;;;;30.15;22.27;;;;;;;;;;5072897;28;20035;-63
2021/12/24 03:39:31;;;;;;;30.08;22.85;;;;;;;;;;5072440;28;20043;-61
2021/12/24 03:41:56;;;;;;;26.08;21.30;;;;;;;;;;5055995;28;20029;-61
2021/12/24 03:44:30;;;;;;;30.25;22.42;;;;;;;;;;5089611;28;20119;-62
2021/12/24 03:47:11;;;;;;;25.15;20.70;;;;;;;;;;5055932;28;20082;-62
2021/12/24 03:54:57;;;;;;;23.95;17.80;;;;;;;;;;5072527;28;20522;-63
2021/12/24 03:57:24;;;;;;;22.17;18.70;;;;;;;;;;5072235;28;20037;-62
2021/12/24 04:00:14;;;;;;;21.23;17.35;;;;;;;;;;5087334;28;20086;-61
2021/12/24 04:02:42;;;;;;;24.92;17.95;;;;;;;;;;5078421;28;20484;-62
2021/12/24 04:05:26;;;;;;;24.35;18.25;;;;;;;;;;5049848;28;20036;-62
2021/12/24 04:08:15;;;;;;;22.60;18.13;;;;;;;;;;5049689;28;20155;-61
2021/12/24 04:11:06;;;;;;;22.92;16.38;;;;;;;;;;5032705;28;20041;-61
2021/12/24 04:13:35;;;;;;;20.88;16.42;;;;;;;;;;5032263;28;20040;-64
2021/12/24 04:16:01;;;;;;;21.92;15.98;;;;;;;;;;5031885;28;20037;-63
2021/12/24 04:26:25;;;;;;;25.35;16.42;;;;;;;;;;5031661;28;20550;-62
2021/12/24 04:28:51;;;;;;;21.92;16.17;;;;;;;;;;5031511;28;20082;-61
2021/12/24 04:31:21;;;;;;;20.17;16.13;;;;;;;;;;5046794;28;20116;-63
2021/12/24 04:33:50;;;;;;;21.73;16.38;;;;;;;;;;5031792;28;20037;-62
2021/12/24 04:37:14;;;;;;;23.92;16.23;;;;;;;;;;5031396;28;20036;-62
2021/12/24 05:03:43;;;;;;;22.58;17.15;;;;;;;;;;5031329;28;20792;-62
2021/12/24 05:08:48;;;;;;;24.35;16.85;;;;;;;;;;5031351;28;20041;-66
2021/12/24 05:11:15;;;;;;;21.50;17.38;;;;;;;;;;5031394;28;20045;-63
2021/12/24 05:13:41;;;;;;;27.50;18.77;;;;;;;;;;5031256;28;20021;-64
2021/12/24 05:22:46;;;;;;;23.23;17.88;;;;;;;;;;4948400;29;20512;-62
2021/12/24 05:25:14;;;;;;;26.50;18.88;;;;;;;;;;4932881;29;20062;-62
2021/12/24 05:27:40;;;;;;;27.52;20.02;;;;;;;;;;4964092;28;20037;-61
2021/12/24 05:30:06;;;;;;;24.23;19.63;;;;;;;;;;5048522;28;20110;-62
2021/12/24 05:32:31;;;;;;;25.73;19.02;;;;;;;;;;5047476;28;20496;-61
2021/12/24 05:34:57;;;;;;;28.92;19.00;;;;;;;;;;5029951;28;20033;-61
2021/12/24 05:37:22;;;;;;;27.25;19.58;;;;;;;;;;5048473;28;20119;-63
2021/12/24 05:39:48;;;;;;;27.23;18.33;;;;;;;;;;5030723;28;20476;-63
2021/12/24 05:42:19;;;;;;;19.60;16.35;;;;;;;;;;5031123;28;20107;-62
2021/12/24 05:44:44;;;;;;;22.13;17.58;;;;;;;;;;5030851;28;20044;-62
2021/12/24 05:47:21;;;;;;;28.60;18.35;;;;;;;;;;5030684;28;20125;-62
2021/12/24 05:49:49;;;;;;;29.30;17.33;;;;;;;;;;5030488;28;20090;-63
2021/12/24 05:52:33;;;;;;;21.42;17.08;;;;;;;;;;5048588;28;20558;-62
2021/12/24 05:55:20;;;;;;;23.00;16.92;;;;;;;;;;5030193;28;20048;-62
2021/12/24 05:57:48;;;;;;;22.83;17.50;;;;;;;;;;5030309;28;20491;-62
2021/12/24 06:00:14;;;;;;;21.27;16.23;;;;;;;;;;5030353;28;20130;-63
2021/12/24 06:02:44;;;;;;;22.17;16.63;;;;;;;;;;5030180;28;20044;-62
2021/12/24 06:05:09;;;;;;;20.95;16.00;;;;;;;;;;5030360;28;20041;-62
2021/12/24 06:07:35;;;;;;;22.65;16.83;;;;;;;;;;5048033;28;20029;-62
2021/12/24 06:10:00;;;;;;;23.25;17.13;;;;;;;;;;5048231;28;20025;-62
2021/12/24 06:12:25;;;;;;;21.50;16.67;;;;;;;;;;5048186;28;20095;-61
2021/12/24 06:14:54;;;;;;;27.48;16.92;;;;;;;;;;5047540;28;20366;-62
2021/12/24 06:17:22;;;;;;;22.83;16.60;;;;;;;;;;5047863;28;20041;-62
2021/12/24 06:19:48;;;;;;;21.40;16.70;;;;;;;;;;5030160;28;20056;-65
2021/12/24 06:22:13;;;;;;;26.40;17.10;;;;;;;;;;5048204;28;20479;-66
2021/12/24 06:24:39;;;;;;;26.65;17.05;;;;;;;;;;5047677;28;20033;-63
2021/12/24 06:27:04;;;;;;;23.90;16.75;;;;;;;;;;5048336;28;20124;-61
2021/12/24 06:29:31;;;;;;;23.85;16.00;;;;;;;;;;5047907;28;20037;-62
2021/12/24 06:31:56;;;;;;;22.38;15.77;;;;;;;;;;5029678;28;20059;-62
2021/12/24 06:34:22;;;;;;;24.92;16.70;;;;;;;;;;5029599;28;20037;-62
2021/12/24 06:36:49;;;;;;;18.55;15.10;;;;;;;;;;5029571;28;20550;-65
2021/12/24 06:39:15;;;;;;;20.48;14.90;;;;;;;;;;5029649;28;20025;-68
2021/12/24 06:41:41;;;;;;;19.63;16.25;;;;;;;;;;5046967;28;20033;-62
2021/12/24 06:44:10;;;;;;;20.08;15.68;;;;;;;;;;5047402;28;20035;-63
2021/12/24 06:46:36;;;;;;;23.25;16.20;;;;;;;;;;5029368;28;20029;-66
2021/12/24 06:49:01;;;;;;;25.13;15.63;;;;;;;;;;5047557;28;20477;-62
2021/12/24 06:51:27;;;;;;;21.73;15.07;;;;;;;;;;5047430;28;20358;-62
2021/12/24 06:53:53;;;;;;;21.50;15.55;;;;;;;;;;5047593;28;20587;-63
2021/12/24 06:56:20;;;;;;;21.67;15.90;;;;;;;;;;5032394;28;20167;-64
2021/12/24 06:58:48;;;;;;;20.95;16.98;;;;;;;;;;5049386;28;20099;-62
2021/12/24 07:01:16;;;;;;;22.90;16.48;;;;;;;;;;5033242;28;20384;-67
2021/12/24 07:03:42;;;;;;;24.30;16.38;;;;;;;;;;5032990;28;20400;-66
2021/12/24 07:06:08;;;;;;;22.05;17.38;;;;;;;;;;5050838;28;20041;-61
2021/12/24 07:08:33;;;;;;;22.98;17.27;;;;;;;;;;5050591;28;20036;-62
2021/12/24 07:10:59;;;;;;;22.08;17.08;;;;;;;;;;5032435;28;20029;-62
2021/12/24 07:13:26;;;;;;;25.42;16.90;;;;;;;;;;5050460;28;20491;-62
2021/12/24 07:15:52;;;;;;;21.73;16.25;;;;;;;;;;5050239;28;20029;-61
2021/12/24 07:18:17;;;;;;;26.52;17.17;;;;;;;;;;5032941;28;20040;-61
2021/12/24 07:20:43;;;;;;;22.00;16.52;;;;;;;;;;5062328;28;20035;-62
2021/12/24 07:23:08;;;;;;;21.55;15.95;;;;;;;;;;5074556;28;20039;-63
2021/12/24 07:25:34;;;;;;;23.27;16.27;;;;;;;;;;5090995;28;20456;-63
2021/12/24 07:28:00;;;;;;;20.85;16.85;;;;;;;;;;5090847;28;20422;-62
2021/12/24 07:30:26;;;;;;;21.70;15.70;;;;;;;;;;5089182;28;20035;-64
2021/12/24 07:32:52;;;;;;;21.35;16.13;;;;;;;;;;5072084;28;20122;-63
2021/12/24 07:35:18;;;;;;;22.90;17.10;;;;;;;;;;5090468;28;20131;-62
2021/12/24 07:37:44;;;;;;;20.50;16.10;;;;;;;;;;5090483;28;20844;-63
2021/12/24 07:40:10;;;;;;;19.58;15.43;;;;;;;;;;5074910;28;20047;-62
2021/12/24 07:42:37;;;;;;;20.05;15.20;;;;;;;;;;5068527;28;20052;-63
2021/12/24 07:45:04;;;;;;;23.17;16.02;;;;;;;;;;5068628;28;20032;-62
2021/12/24 07:47:35;;;;;;;20.88;15.15;;;;;;;;;;5068575;28;20044;-62
2021/12/24 07:50:15;;;;;;;21.55;14.88;;;;;;;;;;5070327;28;20444;-62
2021/12/24 07:52:40;;;;;;;;;;;;;;;;;;5069059;28;20127;-61
2021/12/24 07:55:10;;;;;;;19.97;14.77;;;;;;;;;;5070401;28;20007;-61
2021/12/24 07:57:40;;;;;;;21.58;15.82;;;;;;;;;;5056839;28;20514;-61
2021/12/24 08:00:09;;;;;;;21.83;17.30;;;;;;;;;;5052239;28;20044;-63
2021/12/24 08:02:41;;;;;;;25.50;19.08;;;;;;;;;;5052612;28;20024;-61
2021/12/24 08:05:08;;;;;;;24.58;17.80;;;;;;;;;;5044140;28;20484;-62
2021/12/24 08:07:35;;;;;;;22.55;17.20;;;;;;;;;;5051782;28;20514;-63
2021/12/24 08:10:05;;;;;;;20.02;16.02;;;;;;;;;;5035359;28;20036;-62
2021/12/24 08:12:34;;;;;;;23.92;15.82;;;;;;;;;;5049053;28;20025;-62
2021/12/24 08:15:03;;;;;;;21.98;15.73;;;;;;;;;;5032677;28;20090;-63
2021/12/24 08:17:31;;;;;;;20.23;14.88;;;;;;;;;;5032588;28;20437;-64
2021/12/24 08:20:03;;;;;;;21.67;15.55;;;;;;;;;;5048419;28;20036;-63
2021/12/24 08:22:29;;;;;;;20.00;14.75;;;;;;;;;;5049117;28;20444;-62
2021/12/24 08:24:57;;;;;;;19.27;15.68;;;;;;;;;;5022560;28;20029;-63
2021/12/24 08:27:25;;;;;;;19.77;14.20;;;;;;;;;;5048868;28;20040;-64
2021/12/24 08:29:52;;;;;;;19.45;14.10;;;;;;;;;;5067345;28;20532;-63
2021/12/24 08:32:17;;;;;;;16.52;13.20;;;;;;;;;;5034408;28;20029;-62
2021/12/24 08:34:43;;;;;;;17.20;14.32;;;;;;;;;;5068550;28;20037;-62
2021/12/24 08:37:09;;;;;;;19.60;13.40;;;;;;;;;;5067744;28;20066;-64
2021/12/24 08:39:34;;;;;;;22.10;13.18;;;;;;;;;;5067282;28;20747;-64
2021/12/24 08:42:00;;;;;;;14.93;11.75;;;;;;;;;;5066644;28;20090;-64
2021/12/24 08:44:27;;;;;;;17.15;12.82;;;;;;;;;;5063528;28;20047;-64
2021/12/24 08:46:54;;;;;;;16.45;12.80;;;;;;;;;;5044266;28;20039;-65
2021/12/24 08:49:20;;;;;;;22.00;12.90;;;;;;;;;;5067130;28;20134;-64
2021/12/24 08:51:50;;;;;;;18.50;13.90;;;;;;;;;;5031598;28;20031;-65
2021/12/24 08:54:16;;;;;;;16.08;12.60;;;;;;;;;;5066173;28;20033;-64
2021/12/24 08:56:41;;;;;;;18.38;12.38;;;;;;;;;;5028538;28;20036;-65
2021/12/24 08:59:07;;;;;;;17.13;12.40;;;;;;;;;;5045880;28;20033;-64
2021/12/24 09:01:33;;;;;;;18.50;13.27;;;;;;;;;;5067732;28;20058;-64
2021/12/24 09:03:58;;;;;;;21.65;15.13;;;;;;;;;;5066723;28;20369;-64
2021/12/24 09:06:24;;;;;;;18.95;12.98;;;;;;;;;;5049281;28;20025;-65
2021/12/24 09:08:49;;;;;;;22.02;12.90;;;;;;;;;;5066645;28;20424;-65
2021/12/24 09:11:15;;;;;;;16.30;12.30;;;;;;;;;;5032330;28;20028;-65
2021/12/24 09:13:40;;;;;;;19.42;13.38;;;;;;;;;;5066825;28;20036;-64
2021/12/24 09:16:06;;;;;;;17.13;12.30;;;;;;;;;;5066662;28;20039;-65
2021/12/24 09:18:31;;;;;;;17.88;12.90;;;;;;;;;;5048773;28;20094;-65
2021/12/24 09:21:01;;;;;;;24.27;14.73;;;;;;;;;;5066571;28;20028;-64
2021/12/24 09:23:26;;;;;;;21.02;13.32;;;;;;;;;;5066880;28;20040;-65
2021/12/24 09:25:52;;;;;;;21.80;14.00;;;;;;;;;;5048697;28;20040;-65
2021/12/24 09:28:17;;;;;;;19.65;13.38;;;;;;;;;;5067293;28;20024;-64
2021/12/24 09:30:43;;;;;;;16.73;12.10;;;;;;;;;;5068517;28;20033;-64
2021/12/24 09:33:08;;;;;;;16.08;11.85;;;;;;;;;;5068645;28;20055;-65
2021/12/24 09:35:34;;;;;;;14.43;10.95;;;;;;;;;;5033379;28;20039;-64
2021/12/24 09:38:00;;;;;;;16.70;11.48;;;;;;;;;;5067866;28;20039;-64
2021/12/24 09:40:26;;;;;;;14.90;10.98;;;;;;;;;;5034058;28;20036;-63
2021/12/24 09:42:52;;;;;;;15.32;10.45;;;;;;;;;;5068476;28;20028;-63
2021/12/24 09:45:17;;;;;;;18.60;10.60;;;;;;;;;;5050614;28;20483;-63
2021/12/24 09:47:43;;;;;;;14.05;10.02;;;;;;;;;;5068051;28;20029;-64
2021/12/24 09:50:10;;;;;;;14.93;9.50;;;;;;;;;;5068270;28;20032;-64
2021/12/24 09:52:40;;;;;;;13.77;9.95;;;;;;;;;;5066454;28;20035;-65
2021/12/24 09:55:10;;;;;;;15.20;12.02;;;;;;;;;;5066102;28;20040;-63
2021/12/24 09:57:36;;;;;;;15.95;12.80;;;;;;;;;;5031486;28;20060;-64
2021/12/24 10:00:04;;;;;;;14.05;10.70;;;;;;;;;;5031510;28;20502;-64
2021/12/24 10:02:46;;;;;;;15.55;13.25;;;;;;;;;;5048893;28;20048;-64
2021/12/24 10:05:26;;;;;;;14.15;11.25;;;;;;;;;;5031609;28;20043;-62
2021/12/24 10:07:51;;;;;;;13.70;11.38;;;;;;;;;;5049765;28;20055;-64
2021/12/24 10:10:29;;;;;;;15.02;12.18;;;;;;;;;;5068350;28;20535;-64
2021/12/24 10:12:55;;;;;;;18.23;13.30;;;;;;;;;;5049594;28;20499;-64
2021/12/24 10:15:21;;;;;;;13.30;10.18;;;;;;;;;;5049682;28;20037;-64
2021/12/24 10:17:46;;;;;;;13.82;9.02;;;;;;;;;;5067772;28;20046;-64
2021/12/24 10:20:20;;;;;;;10.73;8.30;;;;;;;;;;5033104;28;20032;-64
2021/12/24 10:22:50;;;;;;;14.65;8.20;;;;;;;;;;5049804;28;20032;-64
2021/12/24 10:25:16;;;;;;;13.63;9.32;;;;;;;;;;5050326;28;20039;-64
2021/12/24 10:27:42;;;;;;;11.07;8.90;;;;;;;;;;5068471;28;20037;-64
2021/12/24 10:30:14;;;;;;;14.80;9.38;;;;;;;;;;5068766;28;20907;-64
2021/12/24 10:32:39;;;;;;;13.30;9.50;;;;;;;;;;5036200;28;20102;-65
2021/12/24 10:35:17;;;;;;;14.25;12.43;;;;;;;;;;5071438;28;20407;-65
2021/12/24 10:37:42;;;;;;;15.77;12.88;;;;;;;;;;5071359;28;20392;-65
2021/12/24 10:40:08;;;;;;;16.08;13.18;;;;;;;;;;5071404;28;20032;-64
2021/12/24 10:42:35;;;;;;;16.40;12.82;;;;;;;;;;5071364;28;20082;-65
2021/12/24 10:45:02;;;;;;;19.40;15.27;;;;;;;;;;5070870;28;20025;-68
2021/12/24 10:47:33;;;;;;;16.98;12.40;;;;;;;;;;5071398;28;20044;-65
2021/12/24 10:55:20;;;;;;;17.00;14.27;;;;;;;;;;5052807;28;20167;-64
2021/12/24 10:57:48;;;;;;;28.48;16.17;;;;;;;;;;5071136;28;20035;-63
2021/12/24 11:00:14;;;;;;;19.35;13.82;;;;;;;;;;5052915;28;20025;-63
2021/12/24 11:02:39;;;;;;;13.55;11.00;;;;;;;;;;5070622;28;20040;-62
2021/12/24 11:05:13;;;;;;;15.40;11.45;;;;;;;;;;5070741;28;20484;-63
2021/12/24 11:07:40;;;;;;;13.95;11.38;;;;;;;;;;5070908;28;20127;-62
2021/12/24 11:10:12;;;;;;;20.30;12.30;;;;;;;;;;5052771;28;20475;-63
2021/12/24 11:12:39;;;;;;;18.08;12.27;;;;;;;;;;5035750;28;20038;-63
2021/12/24 11:15:17;;;;;;;15.10;11.95;;;;;;;;;;5070571;28;20032;-62
2021/12/24 11:17:43;;;;;;;16.13;12.38;;;;;;;;;;5052827;28;20045;-62
2021/12/24 11:20:09;;;;;;;18.55;13.25;;;;;;;;;;5070597;28;20047;-62
2021/12/24 11:22:48;;;;;;;22.83;14.02;;;;;;;;;;5035748;28;20032;-64
2021/12/24 11:25:14;;;;;;;19.05;14.57;;;;;;;;;;5071081;28;20024;-62
2021/12/24 11:27:39;;;;;;;19.15;13.77;;;;;;;;;;5070895;28;20032;-62
2021/12/24 11:30:05;;;;;;;19.30;13.57;;;;;;;;;;5070300;28;20043;-62
2021/12/24 11:32:31;;;;;;;19.60;12.88;;;;;;;;;;5070346;28;20021;-62
2021/12/24 11:34:56;;;;;;;20.58;12.77;;;;;;;;;;5070202;28;20059;-63
2021/12/24 11:37:22;;;;;;;22.83;13.23;;;;;;;;;;5052221;28;20037;-62
2021/12/24 11:39:48;;;;;;;18.42;12.70;;;;;;;;;;5035920;28;20028;-64
2021/12/24 11:42:13;;;;;;;16.38;12.65;;;;;;;;;;5069754;28;20102;-62
2021/12/24 11:44:39;;;;;;;20.80;14.13;;;;;;;;;;5070161;28;20020;-62
2021/12/24 11:47:05;;;;;;;22.10;15.35;;;;;;;;;;5052311;28;20032;-65
2021/12/24 11:49:31;;;;;;;26.45;17.42;;;;;;;;;;5070414;28;20564;-62
2021/12/24 11:51:57;;;;;;;23.60;14.63;;;;;;;;;;5069882;28;20085;-62
2021/12/24 11:54:23;;;;;;;21.75;14.10;;;;;;;;;;5035558;28;20308;-61
2021/12/24 11:56:51;;;;;;;24.25;14.25;;;;;;;;;;5069443;28;20526;-63
2021/12/24 11:59:33;;;;;;;21.10;14.63;;;;;;;;;;5035668;28;20031;-62
2021/12/24 12:01:58;;;;;;;26.35;19.25;;;;;;;;;;5052527;28;20464;-62
2021/12/24 12:04:24;;;;;;;29.80;20.63;;;;;;;;;;5070057;28;20037;-61
2021/12/24 12:06:51;;;;;;;24.20;17.40;;;;;;;;;;5051320;28;20472;-62
2021/12/24 12:09:16;;;;;;;23.00;15.32;;;;;;;;;;5052119;28;20392;-62
2021/12/24 12:11:49;;;;;;;23.85;16.73;;;;;;;;;;5069712;28;20036;-64
2021/12/24 12:14:14;;;;;;;22.15;16.35;;;;;;;;;;5068494;28;20028;-64
2021/12/24 12:16:43;;;;;;;21.88;14.88;;;;;;;;;;5069386;28;20062;-62
2021/12/24 12:19:13;;;;;;;22.42;13.40;;;;;;;;;;5066372;28;20369;-63
2021/12/24 12:21:41;;;;;;;21.02;13.38;;;;;;;;;;5068866;28;20388;-65
2021/12/24 12:26:43;;;;;;;19.75;14.35;;;;;;;;;;5051153;28;20033;-63
2021/12/24 12:29:27;;;;;;;21.13;13.85;;;;;;;;;;5051811;28;20036;-61
2021/12/24 12:31:53;;;;;;;17.90;12.77;;;;;;;;;;5069733;28;20372;-62
2021/12/24 12:34:46;;;;;;;22.33;13.43;;;;;;;;;;5069303;28;20017;-64
2021/12/24 12:37:15;;;;;;;18.65;12.98;;;;;;;;;;5050601;28;20036;-64
2021/12/24 12:39:44;;;;;;;19.33;12.65;;;;;;;;;;5068059;28;20527;-62
2021/12/24 12:42:14;;;;;;;17.13;10.13;;;;;;;;;;5049954;28;20028;-61
2021/12/24 12:44:43;;;;;;;16.90;7.95;;;;;;;;;;5065787;28;20094;-64
2021/12/24 12:47:10;;;;;;;19.25;7.85;;;;;;;;;;5032658;28;20476;-64
2021/12/24 12:49:36;;;;;;;21.90;5.88;;;;;;;;;;5066085;28;20047;-63
2021/12/24 12:52:07;;;;;;;16.25;6.13;;;;;;;;;;5048902;28;20028;-68
2021/12/24 12:54:41;;;;;;;13.43;5.25;;;;;;;;;;5067090;28;20040;-66
2021/12/24 12:57:13;;;;;;;13.98;5.18;;;;;;;;;;5050221;28;20155;-62
2021/12/24 12:59:40;;;;;;;7.68;3.53;;;;;;;;;;5034306;28;20463;-63
2021/12/24 13:02:06;;;;;;;22.98;6.55;;;;;;;;;;5034553;28;20037;-63
2021/12/24 13:04:33;;;;;;;9.55;3.97;;;;;;;;;;5051175;28;20032;-68
2021/12/24 13:06:59;;;;;;;18.23;4.65;;;;;;;;;;5051001;28;20059;-63
2021/12/24 13:09:32;;;;;;;13.38;4.38;;;;;;;;;;5034723;28;20029;-63
2021/12/24 13:12:00;;;;;;;13.80;4.50;;;;;;;;;;5051813;28;20063;-63
2021/12/24 13:14:29;;;;;;;12.55;4.15;;;;;;;;;;5035032;28;20498;-61
2021/12/24 13:17:33;;;;;;;15.18;4.72;;;;;;;;;;5067443;28;20045;-65
2021/12/24 13:20:09;;;;;;;12.05;3.85;;;;;;;;;;5065996;28;20083;-63
2021/12/24 13:22:37;;;;;;;13.68;4.10;;;;;;;;;;5050715;28;20396;-68
2021/12/24 13:25:09;;;;;;;13.45;4.28;;;;;;;;;;5051148;28;20123;-61
2021/12/24 13:27:58;;;;;;;9.95;3.80;;;;;;;;;;5034044;28;20056;-63
2021/12/24 13:30:27;;;;;;;12.75;3.97;;;;;;;;;;5068785;28;20041;-62
2021/12/24 13:32:54;;;;;;;18.88;5.20;;;;;;;;;;5050404;28;20056;-62
2021/12/24 13:35:21;;;;;;;14.50;4.63;;;;;;;;;;5050487;28;20067;-67
2021/12/24 13:37:47;;;;;;;15.82;5.53;;;;;;;;;;5050448;28;20032;-62
2021/12/24 13:40:23;;;;;;;11.52;4.40;;;;;;;;;;5033575;28;20070;-64
2021/12/24 13:42:52;;;;;;;11.00;4.72;;;;;;;;;;5033811;28;20070;-68
2021/12/24 13:45:19;;;;;;;11.73;3.90;;;;;;;;;;5034125;28;20054;-62
2021/12/24 13:55:37;;;;;;;16.13;4.43;;;;;;;;;;5066735;28;20510;-62
2021/12/24 13:58:05;;;;;;;16.17;3.83;;;;;;;;;;5054657;28;20042;-63
2021/12/24 14:00:32;;;;;;;11.18;4.47;;;;;;;;;;5070032;28;20016;-63
2021/12/24 14:02:59;;;;;;;20.35;5.00;;;;;;;;;;5087897;28;20054;-63
2021/12/24 14:05:25;;;;;;;14.43;4.25;;;;;;;;;;5073102;28;20028;-63
2021/12/24 14:08:08;;;;;;;16.92;4.57;;;;;;;;;;5074334;28;20360;-64
2021/12/24 14:10:34;;;;;;;11.32;3.95;;;;;;;;;;5057150;28;20036;-62
2021/12/24 14:13:06;;;;;;;19.08;4.55;;;;;;;;;;5089926;28;20047;-64
2021/12/24 14:15:42;;;;;;;11.65;3.40;;;;;;;;;;5072599;28;20069;-62
2021/12/24 14:18:42;;;;;;;19.75;5.20;;;;;;;;;;5072363;28;20040;-63
2021/12/24 14:23:32;;;;;;;15.50;5.03;;;;;;;;;;5090261;28;19916;-63
2021/12/24 14:25:59;;;;;;;12.75;4.30;;;;;;;;;;5089941;28;20036;-63
2021/12/24 14:28:25;;;;;;;14.65;4.40;;;;;;;;;;5089725;28;20020;-62
2021/12/24 14:31:01;;;;;;;16.42;4.63;;;;;;;;;;5089625;28;20039;-64
2021/12/24 14:33:27;;;;;;;11.10;4.68;;;;;;;;;;5089026;28;20035;-62
2021/12/24 14:35:53;;;;;;;13.90;4.50;;;;;;;;;;5090175;28;20076;-62
2021/12/24 14:38:23;;;;;;;17.30;5.10;;;;;;;;;;5072741;28;20035;-62
2021/12/24 14:40:54;;;;;;;12.57;4.55;;;;;;;;;;5091079;28;20036;-63
2021/12/24 14:43:20;;;;;;;11.73;4.03;;;;;;;;;;5089744;28;20035;-64
2021/12/24 14:45:47;;;;;;;12.05;4.45;;;;;;;;;;5089712;28;20036;-61
2021/12/24 14:48:14;;;;;;;13.00;4.60;;;;;;;;;;5089344;28;20024;-60
2021/12/24 14:50:50;;;;;;;12.77;5.00;;;;;;;;;;5072706;28;20123;-60
2021/12/24 14:53:16;;;;;;;16.80;4.78;;;;;;;;;;5054998;28;20396;-62
2021/12/24 14:55:45;;;;;;;14.57;5.43;;;;;;;;;;5070803;28;20037;-67
2021/12/24 14:58:11;;;;;;;14.77;6.13;;;;;;;;;;5052134;28;20041;-65
2021/12/24 15:00:43;;;;;;;14.80;5.20;;;;;;;;;;5034189;28;20588;-63
2021/12/24 15:03:11;;;;;;;15.13;5.93;;;;;;;;;;5069161;28;20021;-62
2021/12/24 15:05:38;;;;;;;18.13;5.32;;;;;;;;;;5051290;28;20048;-61
2021/12/24 15:08:11;;;;;;;17.65;6.18;;;;;;;;;;5049875;28;20028;-62
2021/12/24 15:10:37;;;;;;;12.75;5.03;;;;;;;;;;5050593;28;20040;-62
2021/12/24 15:13:12;;;;;;;15.77;5.80;;;;;;;;;;5034651;28;20062;-62
2021/12/24 15:15:38;;;;;;;16.70;8.45;;;;;;;;;;5051042;28;20044;-63
2021/12/24 15:18:03;;;;;;;12.13;5.53;;;;;;;;;;5069263;28;20037;-62
2021/12/24 15:20:29;;;;;;;15.45;5.28;;;;;;;;;;5070369;28;20058;-62
2021/12/24 15:22:56;;;;;;;16.92;6.03;;;;;;;;;;5052081;28;20035;-64
2021/12/24 15:25:22;;;;;;;17.73;7.03;;;;;;;;;;5052131;28;20121;-63
2021/12/24 15:27:48;;;;;;;18.48;10.18;;;;;;;;;;5070676;28;20067;-63
2021/12/24 15:30:14;;;;;;;22.50;12.55;;;;;;;;;;5068956;28;20032;-62
2021/12/24 15:32:39;;;;;;;23.63;13.43;;;;;;;;;;5033732;28;20032;-66
2021/12/24 15:35:06;;;;;;;16.65;7.50;;;;;;;;;;5068959;28;20040;-62
2021/12/24 15:37:31;;;;;;;26.13;8.18;;;;;;;;;;5051472;28;20119;-61
2021/12/24 15:39:57;;;;;;;17.67;7.05;;;;;;;;;;5069953;28;20116;-63
2021/12/24 15:42:25;;;;;;;22.95;8.43;;;;;;;;;;5035998;28;20389;-65
2021/12/24 15:44:51;;;;;;;19.07;8.73;;;;;;;;;;5069061;28;20023;-64
2021/12/24 15:47:17;;;;;;;16.17;8.13;;;;;;;;;;5068806;28;20484;-64
2021/12/24 15:49:42;;;;;;;16.25;8.00;;;;;;;;;;5068820;28;20033;-62
2021/12/24 15:52:08;;;;;;;12.32;7.43;;;;;;;;;;5068390;28;20047;-63
2021/12/24 15:54:34;;;;;;;22.65;8.18;;;;;;;;;;5068276;28;20028;-64
2021/12/24 15:57:00;;;;;;;19.95;9.10;;;;;;;;;;5067772;28;20028;-62
2021/12/24 15:59:31;;;;;;;18.38;8.45;;;;;;;;;;5068139;28;20025;-62
2021/12/24 16:01:56;;;;;;;20.75;10.05;;;;;;;;;;5050369;28;20037;-64
2021/12/24 16:04:23;;;;;;;23.40;9.50;;;;;;;;;;5068317;28;20221;-62
2021/12/24 16:06:49;;;;;;;20.50;11.25;;;;;;;;;;5033927;28;20052;-62
2021/12/24 16:09:15;;;;;;;22.42;11.85;;;;;;;;;;5068740;28;20040;-63
2021/12/24 16:11:40;;;;;;;20.60;10.70;;;;;;;;;;5034840;28;20548;-62
2021/12/24 16:14:07;;;;;;;20.75;10.35;;;;;;;;;;5069640;28;20111;-61
2021/12/24 16:16:33;;;;;;;19.23;10.57;;;;;;;;;;5035313;28;20043;-61
2021/12/24 16:18:58;;;;;;;16.77;10.50;;;;;;;;;;5069383;28;20032;-61
2021/12/24 16:21:24;;;;;;;22.60;11.55;;;;;;;;;;5069477;28;20025;-61
2021/12/24 16:23:49;;;;;;;22.10;14.82;;;;;;;;;;5069451;28;20480;-64
2021/12/24 16:26:15;;;;;;;23.83;16.40;;;;;;;;;;5069911;28;20794;-61
2021/12/24 16:28:40;;;;;;;28.30;17.73;;;;;;;;;;5068175;28;20384;-61
2021/12/24 16:31:06;;;;;;;25.15;16.45;;;;;;;;;;5067735;28;20032;-61
2021/12/24 16:33:31;;;;;;;24.17;17.08;;;;;;;;;;5067669;28;20555;-62
2021/12/24 16:35:57;;;;;;;25.63;16.80;;;;;;;;;;5068336;28;20033;-67